Time;durP1;ratioP1;P1;durP2;ratioP2;P2;SDS_P1;SDS_P2;PMS_P1;PMS_P2;Temp;Humidity;BMP_temperature;BMP_pressure;BME280_temperature;BME280_humidity;BME280_pressure;Samples;Min_cycle;Max_cycle;Signal;HPM_P1;HPM_P2
2022/07/14 00:00:32;;;;;;;7.03;2.22;;;20.00;99.90;;;;;;4937073;29;20115;-82
2022/07/14 00:02:58;;;;;;;6.53;2.22;;;20.00;99.90;;;;;;4947559;29;20114;-82
2022/07/14 00:05:23;;;;;;;6.97;2.25;;;19.90;99.90;;;;;;4956518;29;20431;-82
2022/07/14 00:07:53;;;;;;;8.82;2.20;;;19.80;99.90;;;;;;4955786;29;20043;-82
2022/07/14 00:10:19;;;;;;;7.85;2.40;;;19.90;99.90;;;;;;4956272;29;20019;-81
2022/07/14 00:12:44;;;;;;;8.95;2.70;;;19.90;99.90;;;;;;4951470;29;20030;-82
2022/07/14 00:15:16;;;;;;;5.03;2.67;;;19.80;99.90;;;;;;4951406;29;20028;-82
2022/07/14 00:17:41;;;;;;;3.97;2.38;;;19.70;99.90;;;;;;4924411;29;20035;-82
2022/07/14 00:20:08;;;;;;;4.88;2.45;;;19.70;99.90;;;;;;4933646;29;20020;-82
2022/07/14 00:22:40;;;;;;;4.95;2.63;;;19.70;99.90;;;;;;4937069;29;20106;-82
2022/07/14 00:25:07;;;;;;;11.63;2.90;;;19.60;99.90;;;;;;4916149;29;20038;-82
2022/07/14 00:27:34;;;;;;;5.40;2.22;;;19.60;99.90;;;;;;4917900;29;20456;-82
2022/07/14 00:30:06;;;;;;;3.83;2.28;;;19.60;99.90;;;;;;4918004;29;20047;-82
2022/07/14 00:32:33;;;;;;;9.93;2.22;;;19.50;99.90;;;;;;4918310;29;20111;-82
2022/07/14 00:35:00;;;;;;;4.50;2.28;;;19.50;99.90;;;;;;4917529;29;20062;-82
2022/07/14 00:37:26;;;;;;;5.05;2.58;;;19.50;99.90;;;;;;4917742;29;20476;-82
2022/07/14 00:39:58;;;;;;;5.35;2.38;;;19.50;99.90;;;;;;4918281;29;20111;-81
2022/07/14 00:42:27;;;;;;;5.75;2.35;;;19.50;99.90;;;;;;4917736;29;20092;-81
2022/07/14 00:44:53;;;;;;;4.78;2.25;;;19.40;99.90;;;;;;4924597;29;20114;-81
2022/07/14 00:47:18;;;;;;;4.03;2.67;;;19.40;99.90;;;;;;4917887;29;20063;-81
2022/07/14 00:49:46;;;;;;;6.28;2.30;;;19.40;99.90;;;;;;4916951;29;20028;-81
2022/07/14 00:52:11;;;;;;;4.75;2.40;;;19.40;99.90;;;;;;4932779;29;20031;-81
2022/07/14 00:54:37;;;;;;;9.23;3.03;;;19.30;99.90;;;;;;4928750;29;20032;-81
2022/07/14 00:57:03;;;;;;;3.60;2.00;;;19.30;99.90;;;;;;4917581;29;20027;-81
2022/07/14 00:59:28;;;;;;;7.07;2.58;;;19.30;99.90;;;;;;4922291;29;20040;-81
2022/07/14 01:01:54;;;;;;;7.75;2.53;;;19.30;99.90;;;;;;4935996;29;20107;-81
2022/07/14 01:04:20;;;;;;;10.05;2.58;;;19.30;99.90;;;;;;4932450;29;20039;-81
2022/07/14 01:06:46;;;;;;;4.43;2.53;;;19.20;99.90;;;;;;4923388;29;20039;-82
2022/07/14 01:09:11;;;;;;;4.07;2.58;;;19.20;99.90;;;;;;4935454;29;20039;-81
2022/07/14 01:11:40;;;;;;;7.28;2.65;;;19.20;99.90;;;;;;4929878;29;20354;-81
2022/07/14 01:14:06;;;;;;;4.43;2.22;;;19.10;99.90;;;;;;4920614;29;20420;-81
2022/07/14 01:16:31;;;;;;;6.00;2.38;;;19.10;99.90;;;;;;4946196;29;20048;-81
2022/07/14 01:19:01;;;;;;;10.45;3.20;;;19.00;99.90;;;;;;4924601;29;20061;-81
2022/07/14 01:21:26;;;;;;;5.60;2.50;;;18.90;99.90;;;;;;4953805;29;20475;-81
2022/07/14 01:23:58;;;;;;;4.15;2.63;;;19.00;99.90;;;;;;4952409;29;20114;-82
2022/07/14 01:26:26;;;;;;;5.25;2.83;;;18.90;99.90;;;;;;4935351;29;20067;-82
2022/07/14 01:28:52;;;;;;;10.10;2.88;;;18.90;99.90;;;;;;4950598;29;20031;-82
2022/07/14 01:31:17;;;;;;;10.30;2.97;;;18.90;99.90;;;;;;4944983;29;20036;-82
2022/07/14 01:33:45;;;;;;;5.30;2.55;;;18.90;99.90;;;;;;4935642;29;20108;-82
2022/07/14 01:36:10;;;;;;;6.88;3.53;;;18.90;99.90;;;;;;4935300;29;20449;-81
2022/07/14 01:38:42;;;;;;;14.70;3.30;;;18.90;99.90;;;;;;4935775;29;20031;-82
2022/07/14 01:41:08;;;;;;;5.00;3.10;;;18.90;99.90;;;;;;4934050;29;20046;-82
2022/07/14 01:43:36;;;;;;;5.55;2.90;;;18.90;99.90;;;;;;4935488;29;20028;-82
2022/07/14 01:46:01;;;;;;;5.80;2.92;;;18.80;99.90;;;;;;4935041;29;20032;-82
2022/07/14 01:48:30;;;;;;;8.82;3.38;;;18.80;99.90;;;;;;4935365;29;20144;-82
2022/07/14 01:50:55;;;;;;;10.68;3.47;;;18.80;99.90;;;;;;4935294;29;20032;-82
2022/07/14 01:53:28;;;;;;;5.97;2.88;;;18.80;99.90;;;;;;4935434;29;20095;-82
2022/07/14 01:55:54;;;;;;;8.50;3.42;;;18.70;99.90;;;;;;4935183;29;20078;-82
2022/07/14 01:58:19;;;;;;;12.88;3.72;;;18.70;99.90;;;;;;4947594;29;20415;-82
2022/07/14 02:01:39;;;;;;;6.78;3.00;;;18.60;99.90;;;;;;4954543;29;20027;-82
2022/07/14 02:03:30;;;;;;;10.73;3.08;;;18.60;99.90;;;;;;4939876;29;20043;-81
2022/07/14 02:05:56;;;;;;;11.60;3.97;;;18.50;99.90;;;;;;4918388;29;20416;-82
2022/07/14 02:08:22;;;;;;;12.18;3.40;;;18.50;99.90;;;;;;4935044;29;20027;-82
2022/07/14 02:13:32;;;;;;;9.77;3.28;;;18.40;99.90;;;;;;4934979;29;20031;-82
2022/07/14 02:16:05;;;;;;;7.75;3.67;;;18.40;99.90;;;;;;4943658;29;20048;-82
2022/07/14 02:18:30;;;;;;;9.77;3.17;;;18.40;99.90;;;;;;4948888;29;20027;-82
2022/07/14 02:21:16;;;;;;;16.27;3.72;;;18.30;99.90;;;;;;4920508;29;20030;-82
2022/07/14 02:23:41;;;;;;;11.48;3.97;;;18.30;99.90;;;;;;4942103;29;20106;-82
2022/07/14 02:26:12;;;;;;;18.30;3.65;;;18.30;99.90;;;;;;4938464;29;20106;-82
2022/07/14 02:28:38;;;;;;;9.20;3.00;;;18.20;99.90;;;;;;4935347;29;20103;-82
2022/07/14 02:31:04;;;;;;;16.23;4.28;;;18.10;99.90;;;;;;4934869;29;20451;-82
2022/07/14 02:33:29;;;;;;;8.57;3.08;;;18.00;99.90;;;;;;4935384;29;20024;-82
2022/07/14 02:36:08;;;;;;;14.52;3.42;;;17.90;99.90;;;;;;4935138;29;20035;-82
2022/07/14 02:38:34;;;;;;;12.05;3.03;;;17.80;99.90;;;;;;4935336;29;20028;-82
2022/07/14 02:41:09;;;;;;;15.13;3.45;;;17.80;99.90;;;;;;4934985;29;20036;-82
2022/07/14 02:43:35;;;;;;;13.38;3.35;;;17.70;99.90;;;;;;4935878;29;20035;-82
2022/07/14 02:46:22;;;;;;;7.68;2.88;;;17.70;99.90;;;;;;4942193;29;20039;-82
2022/07/14 02:48:48;;;;;;;17.23;4.00;;;17.70;99.90;;;;;;4954076;29;20369;-82
2022/07/14 02:51:50;;;;;;;20.17;4.40;;;17.60;99.90;;;;;;4946614;29;20023;-81
2022/07/14 02:54:15;;;;;;;9.57;3.08;;;17.60;99.90;;;;;;4945910;29;20027;-82
2022/07/14 02:56:41;;;;;;;18.60;3.75;;;17.50;99.90;;;;;;4935446;29;20024;-81
2022/07/14 02:59:18;;;;;;;17.30;4.68;;;17.40;99.90;;;;;;4933703;29;20040;-82
2022/07/14 03:01:44;;;;;;;20.88;3.63;;;17.40;99.90;;;;;;4939232;29;20035;-82
2022/07/14 03:04:13;;;;;;;19.17;3.90;;;17.30;99.90;;;;;;4946439;29;20718;-80
2022/07/14 03:06:39;;;;;;;20.98;4.30;;;17.30;99.90;;;;;;4933435;29;20035;-81
2022/07/14 03:09:16;;;;;;;18.27;4.38;;;17.20;99.90;;;;;;4934228;29;20040;-81
2022/07/14 03:11:41;;;;;;;29.98;3.97;;;17.10;99.90;;;;;;4935831;29;20106;-81
2022/07/14 03:14:07;;;;;;;19.63;5.45;;;17.10;99.90;;;;;;4934525;29;20103;-81
2022/07/14 03:16:32;;;;;;;23.90;4.20;;;17.10;99.90;;;;;;4957252;29;20054;-82
2022/07/14 03:19:07;;;;;;;18.58;4.32;;;17.10;99.90;;;;;;4957483;29;20364;-82
2022/07/14 03:21:33;;;;;;;16.38;4.40;;;17.10;99.90;;;;;;4939976;29;20436;-82
2022/07/14 03:24:00;;;;;;;14.02;3.83;;;17.00;99.90;;;;;;4947786;29;20073;-81
2022/07/14 03:26:28;;;;;;;21.83;4.20;;;17.00;99.90;;;;;;4940453;29;20483;-81
2022/07/14 03:29:03;;;;;;;14.32;3.53;;;17.00;99.90;;;;;;4945474;29;20420;-82
2022/07/14 03:31:28;;;;;;;29.67;6.22;;;16.90;99.90;;;;;;4943316;29;20058;-81
2022/07/14 03:33:56;;;;;;;21.17;4.05;;;16.90;99.90;;;;;;4945440;29;20060;-81
2022/07/14 03:36:21;;;;;;;14.10;4.18;;;16.90;99.90;;;;;;4938238;29;20033;-81
2022/07/14 03:38:55;;;;;;;28.98;4.28;;;16.90;99.90;;;;;;4956691;29;20443;-82
2022/07/14 03:41:20;;;;;;;21.42;3.95;;;16.80;99.90;;;;;;4957067;29;20487;-82
2022/07/14 03:43:49;;;;;;;28.08;4.15;;;16.80;99.90;;;;;;4946322;29;20038;-81
2022/07/14 03:46:15;;;;;;;28.98;4.80;;;16.90;99.90;;;;;;4937285;29;20027;-81
2022/07/14 03:48:41;;;;;;;34.05;5.45;;;16.80;99.90;;;;;;4944805;29;20028;-81
2022/07/14 03:51:07;;;;;;;16.17;3.92;;;16.80;99.90;;;;;;4950809;29;20472;-82
2022/07/14 03:53:35;;;;;;;18.70;3.80;;;16.80;99.90;;;;;;4955417;29;20024;-81
2022/07/14 03:56:01;;;;;;;25.88;4.07;;;16.80;99.90;;;;;;4935587;29;20049;-82
2022/07/14 03:58:27;;;;;;;22.75;4.57;;;16.80;99.90;;;;;;4937077;29;20027;-81
2022/07/14 04:01:04;;;;;;;19.83;4.70;;;16.80;99.90;;;;;;4937285;29;20460;-81
2022/07/14 04:03:30;;;;;;;33.38;5.60;;;16.80;99.90;;;;;;4928652;29;20475;-81
2022/07/14 04:05:57;;;;;;;30.02;4.70;;;16.80;99.90;;;;;;4939347;29;20020;-81
2022/07/14 04:08:22;;;;;;;31.52;5.40;;;16.80;99.90;;;;;;4937329;29;20035;-82
2022/07/14 04:10:50;;;;;;;25.73;4.78;;;16.80;99.90;;;;;;4936240;29;20031;-81
2022/07/14 04:13:16;;;;;;;20.35;4.70;;;16.80;99.90;;;;;;4935425;29;20019;-81
2022/07/14 04:15:56;;;;;;;18.75;4.65;;;16.80;99.90;;;;;;4949499;28;20042;-82
2022/07/14 04:18:22;;;;;;;27.65;4.72;;;16.70;99.90;;;;;;4955581;29;20043;-82
2022/07/14 04:20:50;;;;;;;21.60;5.00;;;16.70;99.90;;;;;;4954930;29;20024;-82
2022/07/14 04:23:16;;;;;;;29.10;4.80;;;16.70;99.90;;;;;;4945310;28;20043;-81
2022/07/14 04:25:42;;;;;;;29.50;4.47;;;16.70;99.90;;;;;;4938026;29;20020;-81
2022/07/14 04:28:08;;;;;;;17.92;4.05;;;16.70;99.90;;;;;;4933033;29;20074;-82
2022/07/14 04:30:34;;;;;;;28.45;4.82;;;16.70;99.90;;;;;;4936379;29;20047;-81
2022/07/14 04:32:59;;;;;;;21.13;4.47;;;16.70;99.90;;;;;;4939402;29;20023;-82
2022/07/14 04:35:26;;;;;;;26.13;5.00;;;16.70;99.90;;;;;;4928827;29;20020;-82
2022/07/14 04:37:51;;;;;;;31.30;5.55;;;16.70;99.90;;;;;;4937094;29;20023;-82
2022/07/14 04:40:26;;;;;;;31.17;5.20;;;16.70;99.90;;;;;;4935969;29;20032;-82
2022/07/14 04:42:52;;;;;;;26.85;7.15;;;16.60;99.90;;;;;;4937274;29;20424;-82
2022/07/14 04:45:18;;;;;;;25.63;5.45;;;16.60;99.90;;;;;;4948905;29;20130;-82
2022/07/14 04:47:43;;;;;;;24.70;4.63;;;16.60;99.90;;;;;;4938457;29;20054;-82
2022/07/14 04:52:55;;;;;;;34.22;5.93;;;16.60;99.90;;;;;;4949810;29;20082;-82
2022/07/14 04:55:22;;;;;;;31.67;5.90;;;16.60;99.90;;;;;;4935340;29;20036;-82
2022/07/14 04:57:48;;;;;;;24.65;5.30;;;16.60;99.90;;;;;;4938319;29;20019;-82
2022/07/14 05:00:14;;;;;;;27.73;5.65;;;16.60;99.90;;;;;;4947281;29;20087;-83
2022/07/14 05:02:40;;;;;;;27.92;5.28;;;16.50;99.90;;;;;;4946028;29;20456;-82
2022/07/14 05:05:12;;;;;;;31.13;6.47;;;16.60;99.90;;;;;;4944426;29;20102;-82
2022/07/14 05:07:37;;;;;;;33.83;8.15;;;16.50;99.90;;;;;;4940522;29;20575;-82
2022/07/14 05:10:26;;;;;;;26.42;8.25;;;16.50;99.90;;;;;;4935378;29;20115;-82
2022/07/14 05:12:52;;;;;;;29.05;9.13;;;16.50;99.90;;;;;;4947098;29;20546;-82
2022/07/14 05:15:17;;;;;;;30.00;9.43;;;16.50;99.90;;;;;;4924054;29;20015;-82
2022/07/14 05:17:44;;;;;;;37.83;10.52;;;16.50;99.90;;;;;;4928929;29;20500;-83
2022/07/14 05:20:16;;;;;;;54.92;10.90;;;16.40;99.90;;;;;;4926427;29;20015;-83
2022/07/14 05:22:42;;;;;;;39.75;9.50;;;16.40;99.90;;;;;;4920604;29;20020;-83
2022/07/14 05:25:11;;;;;;;30.75;7.68;;;16.40;99.90;;;;;;4920505;29;20477;-83
2022/07/14 05:27:50;;;;;;;41.33;6.80;;;16.40;99.90;;;;;;4927842;29;20083;-83
2022/07/14 05:30:15;;;;;;;30.73;5.93;;;16.40;99.90;;;;;;4932093;29;20024;-83
2022/07/14 05:32:41;;;;;;;38.53;6.80;;;16.40;99.90;;;;;;4921352;29;20354;-84
2022/07/14 05:35:07;;;;;;;30.98;5.68;;;16.40;99.90;;;;;;4915449;29;20035;-82
2022/07/14 05:37:32;;;;;;;24.23;5.28;;;16.40;99.90;;;;;;4926096;29;20020;-82
2022/07/14 05:39:58;;;;;;;25.30;4.78;;;16.40;99.90;;;;;;4918375;29;20399;-82
2022/07/14 05:42:41;;;;;;;24.33;5.05;;;16.40;99.90;;;;;;4934469;29;20081;-82
2022/07/14 05:45:07;;;;;;;28.20;6.28;;;16.40;99.90;;;;;;4920339;29;20032;-83
2022/07/14 05:47:35;;;;;;;31.27;6.28;;;16.40;99.90;;;;;;4917443;29;20039;-82
2022/07/14 05:50:00;;;;;;;33.28;7.20;;;16.50;99.90;;;;;;4903204;29;20036;-82
2022/07/14 05:52:30;;;;;;;32.90;8.05;;;16.50;99.90;;;;;;4917470;29;20031;-82
2022/07/14 05:55:15;;;;;;;32.35;8.73;;;16.50;99.90;;;;;;4915208;29;20032;-83
2022/07/14 05:57:41;;;;;;;41.78;11.48;;;16.60;99.90;;;;;;4929820;29;20027;-82
2022/07/14 06:00:07;;;;;;;31.50;9.18;;;16.60;99.90;;;;;;4932742;29;20075;-82
2022/07/14 06:02:34;;;;;;;34.88;10.20;;;16.50;99.90;;;;;;4916169;29;20087;-82
2022/07/14 06:05:36;;;;;;;37.25;10.00;;;16.40;99.90;;;;;;4923827;29;20396;-83
2022/07/14 06:08:02;;;;;;;35.28;11.02;;;16.40;99.90;;;;;;4927125;29;20028;-83
2022/07/14 06:10:43;;;;;;;47.03;12.43;;;16.40;99.90;;;;;;4929191;29;20035;-82
2022/07/14 06:13:09;;;;;;;41.03;11.68;;;16.40;99.90;;;;;;4931978;29;20039;-82
2022/07/14 06:15:34;;;;;;;39.58;9.68;;;16.30;99.90;;;;;;4933490;29;20392;-82
2022/07/14 06:18:00;;;;;;;33.25;9.82;;;16.30;99.90;;;;;;4935599;28;20039;-82
2022/07/14 06:20:31;;;;;;;31.05;8.90;;;16.30;99.90;;;;;;4946433;29;20031;-82
2022/07/14 06:22:57;;;;;;;30.63;8.63;;;16.30;99.90;;;;;;4951978;29;20059;-82
2022/07/14 06:25:27;;;;;;;33.20;10.15;;;16.30;99.90;;;;;;4933151;29;20051;-81
2022/07/14 06:27:53;;;;;;;30.60;9.00;;;16.40;99.90;;;;;;4941358;29;20027;-81
2022/07/14 06:30:19;;;;;;;25.95;10.60;;;16.40;99.90;;;;;;4954302;29;20036;-82
2022/07/14 06:32:49;;;;;;;29.23;10.75;;;16.40;99.90;;;;;;4954433;29;20030;-82
2022/07/14 06:35:15;;;;;;;29.02;9.65;;;16.40;99.90;;;;;;4954097;29;20078;-82
2022/07/14 06:37:54;;;;;;;46.08;13.63;;;16.40;99.90;;;;;;4954260;29;20023;-82
2022/07/14 06:40:20;;;;;;;32.40;11.95;;;16.40;99.90;;;;;;4952723;29;20028;-82
2022/07/14 06:43:05;;;;;;;34.03;11.35;;;16.50;99.90;;;;;;4954255;29;20085;-82
2022/07/14 06:45:31;;;;;;;46.83;12.27;;;16.50;99.90;;;;;;4954100;28;20031;-82
2022/07/14 06:48:04;;;;;;;37.05;11.60;;;16.50;99.90;;;;;;4957012;29;20038;-82
2022/07/14 06:50:29;;;;;;;30.08;11.70;;;16.50;99.90;;;;;;4957833;29;20035;-82
2022/07/14 06:53:35;;;;;;;31.73;12.77;;;16.50;99.90;;;;;;4957930;29;20050;-82
2022/07/14 06:56:01;;;;;;;38.10;13.88;;;16.50;99.90;;;;;;4957950;29;20094;-82
2022/07/14 06:58:49;;;;;;;44.40;14.50;;;16.50;99.90;;;;;;4957688;29;20042;-82
2022/07/14 07:01:15;;;;;;;29.38;14.20;;;16.50;99.90;;;;;;4957609;29;20041;-82
2022/07/14 07:03:41;;;;;;;34.13;14.65;;;16.40;99.90;;;;;;4956298;29;20031;-82
2022/07/14 07:08:52;;;;;;;34.05;14.55;;;16.50;99.90;;;;;;4957221;29;20043;-82
2022/07/14 07:11:17;;;;;;;39.15;15.50;;;16.60;99.90;;;;;;4957505;29;20051;-82
2022/07/14 07:13:49;;;;;;;29.48;12.40;;;16.70;99.90;;;;;;4957299;29;20058;-82
2022/07/14 07:16:16;;;;;;;36.70;13.48;;;16.70;99.90;;;;;;4957231;29;20099;-82
2022/07/14 07:18:42;;;;;;;41.80;14.50;;;16.90;99.90;;;;;;4957428;29;20041;-82
2022/07/14 07:21:14;;;;;;;36.17;12.68;;;17.00;99.90;;;;;;4957264;29;20085;-82
2022/07/14 07:23:44;;;;;;;35.83;13.35;;;17.00;99.90;;;;;;4957022;29;20050;-82
2022/07/14 07:26:20;;;;;;;31.02;13.30;;;17.00;99.90;;;;;;4956739;29;20031;-82
2022/07/14 07:28:46;;;;;;;37.17;13.52;;;17.00;99.90;;;;;;4956759;29;20094;-82
2022/07/14 07:31:23;;;;;;;33.70;13.18;;;17.00;99.90;;;;;;4956850;29;20031;-82
2022/07/14 07:33:48;;;;;;;41.35;13.02;;;17.00;99.90;;;;;;4956730;29;20282;-82
2022/07/14 07:36:24;;;;;;;33.45;12.52;;;17.10;99.90;;;;;;4956770;29;20486;-82
2022/07/14 07:38:49;;;;;;;31.88;12.45;;;17.10;99.90;;;;;;4956670;29;20043;-83
2022/07/14 07:41:45;;;;;;;30.80;13.90;;;17.10;99.90;;;;;;4956955;29;20090;-82
2022/07/14 07:44:10;;;;;;;33.87;12.00;;;17.20;99.90;;;;;;4939509;29;20031;-82
2022/07/14 07:46:37;;;;;;;25.42;11.07;;;17.10;99.90;;;;;;4956655;29;20266;-82
2022/07/14 07:49:02;;;;;;;31.98;13.55;;;17.10;99.90;;;;;;4956781;29;20393;-83
2022/07/14 07:51:29;;;;;;;28.55;12.85;;;17.20;99.90;;;;;;4956813;29;20031;-82
2022/07/14 07:53:54;;;;;;;32.10;11.48;;;17.30;99.90;;;;;;4939113;29;20020;-82
2022/07/14 07:56:49;;;;;;;26.45;10.52;;;17.30;99.90;;;;;;4956697;29;20090;-82
2022/07/14 07:59:15;;;;;;;24.63;9.90;;;17.50;99.90;;;;;;4956444;28;20535;-82
2022/07/14 08:02:24;;;;;;;27.90;9.45;;;17.70;99.90;;;;;;4956632;29;20058;-83
2022/07/14 08:04:50;;;;;;;25.20;9.57;;;17.60;99.90;;;;;;4956445;29;20027;-82
2022/07/14 08:07:29;;;;;;;23.67;9.52;;;17.70;99.90;;;;;;4956555;29;20027;-82
2022/07/14 08:09:55;;;;;;;24.38;9.55;;;17.80;99.90;;;;;;4956157;29;20086;-83
2022/07/14 08:12:23;;;;;;;31.75;10.20;;;17.90;99.90;;;;;;4956342;29;20063;-82
2022/07/14 08:14:49;;;;;;;23.10;10.10;;;17.90;99.90;;;;;;4956269;29;20023;-82
2022/07/14 08:17:20;;;;;;;20.85;8.57;;;17.90;99.90;;;;;;4955995;29;20047;-82
2022/07/14 08:20:35;;;;;;;22.05;9.50;;;17.90;99.90;;;;;;4956354;29;20051;-83
2022/07/14 08:23:02;;;;;;;29.52;9.73;;;18.00;99.90;;;;;;4955880;29;20034;-82
2022/07/14 08:25:30;;;;;;;25.05;9.57;;;18.10;99.90;;;;;;4956087;29;20435;-83
2022/07/14 08:27:56;;;;;;;19.70;8.40;;;18.20;99.90;;;;;;4938919;29;20028;-83
2022/07/14 08:30:29;;;;;;;20.98;8.70;;;18.30;99.90;;;;;;4954858;29;20032;-83
2022/07/14 08:33:10;;;;;;;25.55;9.88;;;18.30;99.90;;;;;;4956031;29;20024;-83
2022/07/14 08:35:37;;;;;;;20.45;8.65;;;18.40;99.90;;;;;;4938744;29;20062;-83
2022/07/14 08:38:11;;;;;;;28.20;8.95;;;18.40;99.90;;;;;;4938775;29;20123;-82
2022/07/14 08:40:37;;;;;;;20.30;7.95;;;18.50;99.90;;;;;;4938822;29;20032;-82
2022/07/14 08:43:04;;;;;;;21.15;7.65;;;18.50;99.90;;;;;;4939026;29;20028;-82
2022/07/14 08:45:41;;;;;;;20.88;8.82;;;18.50;99.90;;;;;;4955634;29;20027;-82
2022/07/14 08:48:09;;;;;;;17.17;7.30;;;18.60;99.90;;;;;;4955620;29;20049;-82
2022/07/14 08:50:44;;;;;;;20.05;7.10;;;18.60;99.90;;;;;;4938439;29;20070;-82
2022/07/14 08:53:12;;;;;;;30.77;8.02;;;18.70;99.90;;;;;;4938110;29;20027;-82
2022/07/14 08:55:50;;;;;;;30.48;8.32;;;18.70;99.90;;;;;;4955698;29;20532;-83
2022/07/14 08:58:15;;;;;;;22.55;7.78;;;18.80;99.90;;;;;;4955659;29;20054;-83
2022/07/14 09:00:44;;;;;;;14.57;6.15;;;18.90;99.90;;;;;;4955596;29;20031;-83
2022/07/14 09:03:09;;;;;;;21.92;6.25;;;19.00;99.90;;;;;;4938224;29;20121;-82
2022/07/14 09:05:43;;;;;;;15.88;5.68;;;19.00;99.90;;;;;;4955486;29;20446;-82
2022/07/14 09:08:11;;;;;;;20.65;6.75;;;19.10;99.90;;;;;;4955025;29;20031;-83
2022/07/14 09:10:48;;;;;;;15.57;5.65;;;19.10;99.90;;;;;;4937496;29;20023;-83
2022/07/14 09:13:19;;;;;;;24.67;7.88;;;19.10;99.90;;;;;;4955143;29;20051;-82
2022/07/14 09:15:47;;;;;;;18.27;4.78;;;19.20;99.90;;;;;;4955539;29;20039;-83
2022/07/14 09:18:26;;;;;;;14.90;5.68;;;19.20;99.90;;;;;;4954994;28;20050;-82
2022/07/14 09:20:54;;;;;;;17.08;5.90;;;19.30;99.90;;;;;;4955042;29;20031;-82
2022/07/14 09:23:35;;;;;;;19.30;5.90;;;19.40;99.90;;;;;;4954923;29;20045;-82
2022/07/14 09:26:18;;;;;;;15.88;5.80;;;19.50;99.90;;;;;;4955128;29;20016;-83
2022/07/14 09:28:47;;;;;;;16.27;5.75;;;19.70;99.90;;;;;;4955027;29;20031;-82
2022/07/14 09:31:22;;;;;;;31.52;7.25;;;19.80;99.90;;;;;;4955013;29;20447;-83
2022/07/14 09:34:01;;;;;;;13.82;4.85;;;19.80;99.90;;;;;;4954949;29;20102;-83
2022/07/14 09:36:35;;;;;;;17.17;5.70;;;19.80;99.90;;;;;;4954958;29;20062;-83
2022/07/14 09:39:18;;;;;;;20.13;5.22;;;19.90;99.90;;;;;;4954618;29;20086;-83
2022/07/14 09:41:53;;;;;;;18.40;5.82;;;19.90;99.90;;;;;;4955044;29;20114;-83
2022/07/14 09:44:29;;;;;;;18.48;6.10;;;19.90;99.90;;;;;;4954670;29;20027;-83
2022/07/14 09:46:57;;;;;;;18.83;7.10;;;19.90;99.90;;;;;;4954849;29;20034;-84
2022/07/14 09:50:12;;;;;;;13.43;5.40;;;19.90;99.90;;;;;;4937519;29;20035;-83
2022/07/14 09:52:38;;;;;;;28.90;6.88;;;20.00;99.90;;;;;;4954618;29;20023;-82
2022/07/14 09:55:05;;;;;;;14.60;5.07;;;19.90;99.90;;;;;;4954639;29;20046;-83
2022/07/14 09:57:48;;;;;;;14.73;5.22;;;19.80;99.90;;;;;;4937377;29;20031;-83
2022/07/14 10:00:18;;;;;;;18.00;5.63;;;19.80;99.90;;;;;;4954551;29;20441;-83
2022/07/14 10:02:48;;;;;;;13.25;5.18;;;19.80;99.90;;;;;;4937496;29;20062;-82
2022/07/14 10:05:14;;;;;;;22.85;6.03;;;19.80;99.90;;;;;;4954473;29;20475;-83
2022/07/14 10:08:14;;;;;;;12.48;5.50;;;20.00;99.90;;;;;;4954551;29;20035;-83
2022/07/14 10:10:39;;;;;;;14.77;4.97;;;20.00;99.90;;;;;;4954584;29;20027;-82
2022/07/14 10:13:17;;;;;;;21.70;5.22;;;20.10;99.90;;;;;;4954606;29;20034;-83
2022/07/14 10:15:43;;;;;;;17.30;3.88;;;20.20;99.90;;;;;;4954568;29;20019;-82
2022/07/14 10:18:09;;;;;;;12.32;4.63;;;20.20;99.90;;;;;;4924738;29;20539;-83
2022/07/14 10:20:45;;;;;;;11.65;3.83;;;20.20;99.90;;;;;;4935753;29;20102;-82
2022/07/14 10:23:11;;;;;;;11.88;3.33;;;20.20;99.90;;;;;;4921896;29;20500;-82
2022/07/14 10:25:37;;;;;;;19.02;5.10;;;20.20;99.90;;;;;;4922140;29;20031;-82
2022/07/14 10:28:03;;;;;;;11.93;2.80;;;20.20;99.90;;;;;;4938848;29;20027;-83
2022/07/14 10:30:35;;;;;;;17.17;3.75;;;20.30;99.90;;;;;;4939017;29;20114;-83
2022/07/14 10:33:28;;;;;;;20.25;3.83;;;20.30;99.90;;;;;;4921830;29;20024;-83
2022/07/14 10:36:06;;;;;;;12.48;3.65;;;20.30;99.90;;;;;;4938911;29;20023;-83
2022/07/14 10:39:09;;;;;;;15.40;4.18;;;20.30;99.90;;;;;;4938112;29;20036;-83
2022/07/14 10:42:32;;;;;;;9.25;3.33;;;20.40;99.90;;;;;;4938944;29;20028;-83
2022/07/14 10:45:01;;;;;;;14.18;3.55;;;20.50;99.90;;;;;;4938802;29;20028;-83
2022/07/14 10:48:04;;;;;;;16.98;3.85;;;20.70;99.90;;;;;;4938838;29;20031;-83
2022/07/14 10:50:31;;;;;;;11.55;3.38;;;20.70;99.90;;;;;;4880088;29;20033;-83
2022/07/14 10:53:00;;;;;;;13.40;3.30;;;20.80;99.90;;;;;;4927077;29;20048;-83
2022/07/14 10:55:33;;;;;;;13.30;3.67;;;20.80;99.90;;;;;;4938639;29;20067;-83
2022/07/14 10:57:58;;;;;;;17.60;3.63;;;20.90;99.90;;;;;;4938640;29;20028;-83
2022/07/14 11:00:47;;;;;;;15.95;4.10;;;20.90;99.90;;;;;;4938525;29;20440;-82
2022/07/14 11:03:24;;;;;;;10.60;3.38;;;20.90;99.90;;;;;;4938328;29;20079;-83
2022/07/14 11:06:20;;;;;;;12.45;3.08;;;20.90;99.90;;;;;;4938511;29;20019;-83
2022/07/14 11:09:32;;;;;;;14.40;3.45;;;21.00;99.90;;;;;;4938196;29;20475;-83
2022/07/14 11:12:11;;;;;;;19.25;3.78;;;21.20;99.90;;;;;;4936544;29;20032;-83
2022/07/14 11:14:43;;;;;;;13.63;2.60;;;21.50;99.90;;;;;;4938228;29;20038;-83
2022/07/14 11:17:37;;;;;;;15.48;2.90;;;21.80;99.90;;;;;;4941157;28;20043;-83
2022/07/14 11:20:14;;;;;;;18.20;3.58;;;21.80;99.90;;;;;;4957526;29;20043;-84
2022/07/14 11:22:41;;;;;;;12.25;4.00;;;21.80;99.90;;;;;;4957027;29;20114;-83
2022/07/14 11:25:27;;;;;;;8.52;2.88;;;21.70;99.90;;;;;;4957217;29;20027;-83
2022/07/14 11:27:53;;;;;;;11.18;3.25;;;21.60;99.90;;;;;;4957227;29;20467;-83
2022/07/14 11:30:22;;;;;;;23.60;3.42;;;21.50;99.90;;;;;;4957125;29;20106;-83
2022/07/14 11:33:07;;;;;;;12.77;2.88;;;21.50;99.90;;;;;;4956657;28;20035;-83
2022/07/14 11:38:34;;;;;;;9.27;3.03;;;21.40;99.90;;;;;;4957023;29;20066;-83
2022/07/14 11:41:02;;;;;;;13.68;3.45;;;21.40;99.90;;;;;;4955825;29;20031;-82
2022/07/14 11:43:32;;;;;;;13.88;3.50;;;21.40;99.90;;;;;;4956947;29;20023;-83
2022/07/14 11:46:04;;;;;;;7.88;2.47;;;21.50;99.90;;;;;;4956891;29;20031;-83
2022/07/14 11:48:34;;;;;;;12.38;3.28;;;21.50;99.90;;;;;;4956786;29;20579;-83
2022/07/14 11:51:06;;;;;;;12.40;2.90;;;21.60;99.90;;;;;;4956829;29;20051;-83
2022/07/14 11:53:57;;;;;;;13.60;4.10;;;21.80;99.90;;;;;;4956346;29;20031;-82
2022/07/14 11:56:24;;;;;;;20.17;3.70;;;21.90;99.90;;;;;;4955857;29;20022;-83
2022/07/14 11:58:52;;;;;;;12.23;3.13;;;22.00;99.90;;;;;;4956733;29;20035;-83
2022/07/14 12:01:18;;;;;;;8.82;2.95;;;22.00;99.90;;;;;;4956675;29;20020;-83
2022/07/14 12:03:51;;;;;;;18.20;3.78;;;22.00;99.90;;;;;;4956585;29;20046;-83
2022/07/14 12:06:16;;;;;;;13.48;3.22;;;22.20;99.90;;;;;;4956570;29;20027;-83
2022/07/14 12:08:45;;;;;;;9.45;3.00;;;22.40;99.90;;;;;;4956110;29;20053;-83
2022/07/14 12:11:13;;;;;;;13.68;3.55;;;22.60;99.90;;;;;;4955226;29;20026;-83
2022/07/14 12:13:53;;;;;;;16.48;3.35;;;22.60;99.90;;;;;;4956459;29;20031;-83
2022/07/14 12:16:22;;;;;;;14.18;3.58;;;22.70;99.90;;;;;;4956272;29;20070;-83
2022/07/14 12:18:51;;;;;;;11.15;3.25;;;22.70;99.90;;;;;;4956177;29;20055;-83
2022/07/14 12:21:56;;;;;;;20.20;3.67;;;22.70;99.90;;;;;;4939118;29;20041;-83
2022/07/14 12:24:25;;;;;;;13.55;3.78;;;22.70;99.90;;;;;;4955975;29;20028;-83
2022/07/14 12:26:51;;;;;;;16.67;3.40;;;22.70;99.90;;;;;;4956083;29;20070;-83
2022/07/14 12:29:17;;;;;;;13.35;2.65;;;22.80;99.90;;;;;;4938844;29;20111;-83
2022/07/14 12:31:59;;;;;;;20.92;3.40;;;22.90;99.90;;;;;;4956253;29;20109;-83
2022/07/14 12:34:26;;;;;;;7.70;2.25;;;23.00;99.90;;;;;;4938826;29;20027;-83
2022/07/14 12:37:04;;;;;;;15.07;3.22;;;23.00;99.90;;;;;;4955917;29;20042;-83
2022/07/14 12:39:31;;;;;;;9.50;2.22;;;23.10;99.90;;;;;;4955463;29;20043;-84
2022/07/14 12:42:10;;;;;;;9.68;2.33;;;23.10;99.90;;;;;;4955967;29;20024;-83
2022/07/14 12:45:07;;;;;;;12.18;2.50;;;23.00;98.90;;;;;;4954833;28;20038;-82
2022/07/14 12:47:48;;;;;;;12.07;1.92;;;23.00;98.20;;;;;;4955699;29;20023;-82
2022/07/14 12:50:24;;;;;;;11.73;1.90;;;22.90;99.30;;;;;;4938324;29;20031;-82
2022/07/14 12:52:57;;;;;;;14.70;3.13;;;22.70;96.60;;;;;;4938137;29;20360;-82
2022/07/14 12:55:36;;;;;;;7.93;1.92;;;22.60;98.80;;;;;;4955550;29;20534;-83
2022/07/14 12:58:16;;;;;;;9.98;2.50;;;22.50;98.50;;;;;;4955659;29;20047;-83
2022/07/14 13:00:44;;;;;;;10.10;2.15;;;22.40;97.50;;;;;;4955528;29;20015;-82
2022/07/14 13:03:19;;;;;;;11.43;2.72;;;22.40;95.40;;;;;;4955472;29;20113;-82
2022/07/14 13:05:55;;;;;;;8.15;1.83;;;22.40;96.40;;;;;;5089984;28;20394;-83
2022/07/14 13:08:39;;;;;;;8.32;2.53;;;22.60;99.10;;;;;;5090066;28;20388;-83
2022/07/14 13:11:10;;;;;;;7.80;1.77;;;22.80;91.30;;;;;;5090305;28;20464;-83